Pagrindinis puslapis
METAR-TAF:

METAR-TAF

Oro uostai :

Verona, Italija

platuma: 45-23N, ilguma: 010-52E, Aukštis: 67 m

Dabartinis oras

Ataskaita buvo paskelbta 24 minutes, ne 19:20 UTC
Vėjas 3 kt iš Rytų
Temperatūra 19°C
Drėgmė 56%
Slėgis 1022 hPa
Matomumas 10 km arba daugiau
Išsisklaidę debesys ne aukštis 9000 ft

METAR: LIPX 191920Z 08003KT 9999 SCT090 19/10 Q1022

Laikas: 21:44 (19:44 UTC)

Prognozė

Ataskaita buvo paskelbta 2 valandos ir 44 minutes, ne 17:00 UTC
Prognozė galioja nuo 19 metu 18 UTC su 20 metu 03 UTC
Vėjas 7 kt iš Rytų
Matomumas 10 km arba daugiau
Su prošvaistėmis ne aukštis 7000 ft

TAF: LIPX 191700Z 1918/2003 09007KT 9999 BKN070

Orai ataskaitas ir orų prognozės (METAR, TAF).

turimą stotys yra geltonos ir raudonos taškus žemėlapyje.

Perkelti pele per norėdami pamatyti stoties vardą.

Tada spustelėkite, norėdami matyti oro stebėjimo ir prognozės.

Norėdami pakeisti žemėlapį: spustelėkite ant žalios mygtukų su juodo kryžiaus žemyn,; žalią mygtuką su brūkšneliu, jei norite nutolinti; arba žalių rodyklių gretimoms žemėlapius.


METAR-TAF: